createdAt,value
2018-03-31T00:00:03.581Z,99.90
2018-03-31T00:02:30.528Z,99.90
2018-03-31T00:04:57.490Z,99.90
2018-03-31T00:07:24.438Z,99.90
2018-03-31T00:09:51.373Z,99.90
2018-03-31T00:12:18.347Z,99.90
2018-03-31T00:14:45.294Z,99.90
2018-03-31T00:17:13.411Z,99.90
2018-03-31T00:19:40.336Z,99.90
2018-03-31T00:22:07.311Z,99.90
2018-03-31T00:24:34.278Z,99.90
2018-03-31T00:27:01.989Z,99.90
2018-03-31T00:29:32.049Z,99.90
2018-03-31T00:31:58.998Z,99.90
2018-03-31T00:34:25.939Z,99.90
2018-03-31T00:36:52.883Z,99.90
2018-03-31T00:39:19.829Z,99.90
2018-03-31T00:41:46.803Z,99.90
2018-03-31T00:44:13.748Z,99.90
2018-03-31T00:46:40.692Z,99.90
2018-03-31T00:49:07.673Z,99.90
2018-03-31T00:51:35.390Z,99.90
2018-03-31T00:54:02.358Z,99.90
2018-03-31T00:56:29.306Z,99.90
2018-03-31T00:58:56.255Z,99.80
2018-03-31T01:01:23.233Z,99.90
2018-03-31T01:03:50.206Z,99.90
2018-03-31T01:06:17.155Z,99.90
2018-03-31T01:08:44.113Z,99.90
2018-03-31T01:11:11.069Z,99.90
2018-03-31T01:13:38.043Z,99.90
2018-03-31T01:16:05.005Z,99.90
2018-03-31T01:18:31.963Z,99.90
2018-03-31T01:20:58.949Z,99.90
2018-03-31T01:23:25.900Z,99.90
2018-03-31T01:25:52.857Z,99.90
2018-03-31T01:28:20.129Z,99.90
2018-03-31T01:30:47.082Z,99.90
2018-03-31T01:33:14.051Z,99.90
2018-03-31T01:35:40.989Z,99.90
2018-03-31T01:38:07.951Z,99.90
2018-03-31T01:40:34.893Z,99.90
2018-03-31T01:43:01.880Z,99.90
2018-03-31T01:45:28.859Z,99.90
2018-03-31T01:47:55.808Z,99.90
2018-03-31T01:50:22.766Z,99.90
2018-03-31T01:52:49.821Z,99.90
2018-03-31T01:55:16.773Z,99.90
2018-03-31T01:57:43.748Z,99.90
2018-03-31T02:00:10.699Z,99.90
2018-03-31T02:02:37.657Z,99.90
2018-03-31T02:05:04.601Z,99.90
2018-03-31T02:07:32.319Z,99.90
2018-03-31T02:09:59.273Z,99.90
2018-03-31T02:12:26.237Z,99.90
2018-03-31T02:14:53.196Z,99.90
2018-03-31T02:17:20.180Z,99.90
2018-03-31T02:19:47.110Z,99.90
2018-03-31T02:22:14.106Z,99.90
2018-03-31T02:24:41.062Z,99.90
2018-03-31T02:27:08.022Z,99.90
2018-03-31T02:29:34.973Z,99.90
2018-03-31T02:32:01.954Z,99.90
2018-03-31T02:34:28.909Z,99.90
2018-03-31T02:36:55.869Z,99.90
2018-03-31T02:39:23.612Z,99.90
2018-03-31T02:41:50.565Z,99.90
2018-03-31T02:44:17.526Z,99.90
2018-03-31T02:46:44.486Z,99.90
2018-03-31T02:49:12.211Z,99.90
2018-03-31T02:51:39.189Z,99.90
2018-03-31T02:54:06.145Z,99.90
2018-03-31T02:56:33.120Z,99.90
2018-03-31T02:59:00.085Z,99.90
2018-03-31T03:01:27.062Z,99.90
2018-03-31T03:03:54.032Z,99.90
2018-03-31T03:06:20.973Z,99.90
2018-03-31T03:08:47.925Z,99.90
2018-03-31T03:11:14.895Z,99.90
2018-03-31T03:13:42.156Z,99.90
2018-03-31T03:16:09.434Z,99.90
2018-03-31T03:18:36.384Z,99.90
2018-03-31T03:21:03.333Z,99.90
2018-03-31T03:23:30.295Z,99.90
2018-03-31T03:25:57.254Z,99.90
2018-03-31T03:28:24.216Z,99.90
2018-03-31T03:30:51.174Z,99.90
2018-03-31T03:33:18.113Z,99.90
2018-03-31T03:35:45.083Z,99.90
2018-03-31T03:38:12.030Z,99.90
2018-03-31T03:40:38.986Z,99.90
2018-03-31T03:43:06.727Z,99.90
2018-03-31T03:45:33.708Z,99.90
2018-03-31T03:48:00.688Z,99.90
2018-03-31T03:50:27.630Z,99.90
2018-03-31T03:52:54.603Z,99.90
2018-03-31T03:55:21.544Z,99.90
2018-03-31T03:57:48.485Z,99.90
2018-03-31T04:00:15.450Z,99.90
2018-03-31T04:02:42.404Z,99.90
2018-03-31T04:05:09.369Z,99.90
2018-03-31T04:07:36.329Z,99.90
2018-03-31T04:10:03.300Z,99.90
2018-03-31T04:12:30.254Z,99.90
2018-03-31T04:14:57.962Z,99.90
2018-03-31T04:17:24.918Z,99.90
2018-03-31T04:19:51.874Z,99.90
2018-03-31T04:22:18.834Z,99.90
2018-03-31T04:24:45.806Z,99.90
2018-03-31T04:27:13.517Z,99.90
2018-03-31T04:29:40.476Z,99.90
2018-03-31T04:32:07.430Z,99.90
2018-03-31T04:34:34.381Z,99.90
2018-03-31T04:37:01.344Z,99.90
2018-03-31T04:39:28.312Z,99.90
2018-03-31T04:41:55.286Z,99.90
2018-03-31T04:44:22.997Z,99.90
2018-03-31T04:46:49.944Z,99.90
2018-03-31T04:49:16.921Z,99.90
2018-03-31T04:51:43.876Z,99.90
2018-03-31T04:54:10.841Z,99.90
2018-03-31T04:56:37.784Z,99.90
2018-03-31T04:59:04.728Z,99.90
2018-03-31T05:01:31.709Z,99.90
2018-03-31T05:03:58.664Z,99.90
2018-03-31T05:06:25.638Z,99.90
2018-03-31T05:08:52.593Z,99.90
2018-03-31T05:11:19.556Z,99.90
2018-03-31T05:13:46.539Z,99.90
2018-03-31T05:16:13.486Z,99.90
2018-03-31T05:18:40.450Z,99.90
2018-03-31T05:21:07.404Z,99.90
2018-03-31T05:23:35.124Z,99.90
2018-03-31T05:26:02.101Z,99.90
2018-03-31T05:28:29.054Z,99.90
2018-03-31T05:30:56.777Z,99.90
2018-03-31T05:33:23.733Z,99.90
2018-03-31T05:35:50.694Z,99.90
2018-03-31T05:38:17.660Z,99.90
2018-03-31T05:40:45.792Z,99.90
2018-03-31T05:43:12.766Z,99.90
2018-03-31T05:45:39.725Z,99.90
2018-03-31T05:48:09.208Z,99.90
2018-03-31T05:50:36.154Z,99.90
2018-03-31T05:53:03.378Z,99.90
2018-03-31T05:55:31.093Z,99.90
2018-03-31T05:57:58.045Z,99.90
2018-03-31T06:00:25.008Z,99.90
2018-03-31T06:02:51.973Z,99.90
2018-03-31T06:05:19.697Z,99.90
2018-03-31T06:07:46.656Z,99.90
2018-03-31T06:10:13.609Z,99.90
2018-03-31T06:12:40.556Z,99.90
2018-03-31T06:15:07.532Z,99.90
2018-03-31T06:17:35.266Z,99.90
2018-03-31T06:20:02.254Z,99.90
2018-03-31T06:22:29.192Z,99.90
2018-03-31T06:24:56.137Z,99.90
2018-03-31T06:27:23.101Z,99.90
2018-03-31T06:29:50.061Z,99.90
2018-03-31T06:32:17.021Z,99.90
2018-03-31T06:34:43.973Z,99.90
2018-03-31T06:37:10.958Z,99.90
2018-03-31T06:39:37.938Z,99.90
2018-03-31T06:42:04.908Z,99.90
2018-03-31T06:44:31.875Z,99.90
2018-03-31T06:46:58.825Z,99.90
2018-03-31T06:49:25.794Z,99.90
2018-03-31T06:51:52.764Z,99.90
2018-03-31T06:54:19.718Z,99.90
2018-03-31T06:56:46.693Z,99.90
2018-03-31T06:59:13.646Z,99.90
2018-03-31T07:01:41.362Z,99.90
2018-03-31T07:04:08.317Z,99.90
2018-03-31T07:06:35.274Z,99.90
2018-03-31T07:09:02.253Z,99.90
2018-03-31T07:11:29.202Z,99.90
2018-03-31T07:13:56.394Z,99.90
2018-03-31T07:16:23.361Z,99.90
2018-03-31T07:18:50.312Z,99.90
2018-03-31T07:21:17.284Z,99.90
2018-03-31T07:23:44.234Z,99.90
2018-03-31T07:26:12.389Z,99.90
2018-03-31T07:28:39.353Z,99.90
2018-03-31T07:31:06.686Z,99.90
2018-03-31T07:33:33.634Z,99.90
2018-03-31T07:36:00.584Z,99.70
2018-03-31T07:38:27.531Z,99.40
2018-03-31T07:40:54.496Z,99.30
2018-03-31T07:43:21.451Z,99.20
2018-03-31T07:45:49.154Z,98.80
2018-03-31T07:48:16.085Z,98.60
2018-03-31T07:50:43.042Z,98.00
2018-03-31T07:53:10.000Z,97.20
2018-03-31T07:55:36.945Z,96.20
2018-03-31T07:58:03.901Z,93.90
2018-03-31T08:00:31.618Z,90.80
2018-03-31T08:02:58.577Z,90.70
2018-03-31T08:05:25.529Z,85.10
2018-03-31T08:07:52.481Z,83.50
2018-03-31T08:10:19.755Z,81.70
2018-03-31T08:12:48.217Z,77.10
2018-03-31T08:15:15.170Z,77.10
2018-03-31T08:17:42.137Z,73.20
2018-03-31T08:20:09.408Z,72.60
2018-03-31T08:22:36.370Z,71.30
2018-03-31T08:25:03.323Z,69.20
2018-03-31T08:27:30.269Z,69.00
2018-03-31T08:29:58.010Z,67.10
2018-03-31T08:32:24.952Z,66.90
2018-03-31T08:34:51.928Z,63.70
2018-03-31T08:37:18.880Z,62.70
2018-03-31T08:39:45.841Z,60.00
2018-03-31T08:42:12.800Z,59.60
2018-03-31T08:44:39.750Z,58.00
2018-03-31T08:47:06.713Z,57.30
2018-03-31T08:49:33.664Z,55.80
2018-03-31T08:52:00.941Z,56.00
2018-03-31T08:54:27.960Z,54.90
2018-03-31T08:56:54.867Z,54.10
2018-03-31T08:59:21.835Z,52.30
2018-03-31T09:01:48.805Z,50.90
2018-03-31T09:04:15.758Z,50.60
2018-03-31T09:06:42.715Z,49.90
2018-03-31T09:09:09.690Z,49.10
2018-03-31T09:11:36.743Z,49.70
2018-03-31T09:14:03.700Z,48.60
2018-03-31T09:16:30.649Z,48.60
2018-03-31T09:18:57.613Z,48.10
2018-03-31T09:21:25.397Z,48.60
2018-03-31T09:23:53.120Z,48.50
2018-03-31T09:26:20.065Z,48.40
2018-03-31T09:28:47.021Z,48.60
2018-03-31T09:31:14.183Z,49.20
2018-03-31T09:33:41.151Z,47.70
2018-03-31T09:36:08.113Z,46.60
2018-03-31T09:38:35.069Z,46.80
2018-03-31T09:41:02.014Z,45.30
2018-03-31T09:43:28.977Z,43.60
2018-03-31T09:45:56.276Z,43.10
2018-03-31T09:48:23.241Z,40.10
2018-03-31T09:50:50.193Z,40.40
2018-03-31T09:53:17.236Z,39.80
2018-03-31T09:55:44.203Z,40.20
2018-03-31T09:58:11.158Z,39.10
2018-03-31T10:00:38.110Z,38.70
2018-03-31T10:03:06.060Z,38.00
2018-03-31T10:05:33.002Z,37.70
2018-03-31T10:07:59.984Z,37.90
2018-03-31T10:10:26.939Z,36.70
2018-03-31T10:12:53.926Z,34.70
2018-03-31T10:15:20.870Z,33.90
2018-03-31T10:17:47.814Z,33.70
2018-03-31T10:20:14.781Z,35.00
2018-03-31T10:22:41.728Z,36.00
2018-03-31T10:25:08.720Z,37.10
2018-03-31T10:27:35.662Z,37.30
2018-03-31T10:30:04.122Z,35.60
2018-03-31T10:32:31.096Z,35.60
2018-03-31T10:34:58.038Z,36.00
2018-03-31T10:37:25.011Z,35.00
2018-03-31T10:39:51.968Z,34.60
2018-03-31T10:42:19.689Z,32.70
2018-03-31T10:44:46.640Z,32.60
2018-03-31T10:47:13.793Z,33.40
2018-03-31T10:49:40.754Z,33.00
2018-03-31T10:52:07.714Z,32.60
2018-03-31T10:54:34.666Z,32.70
2018-03-31T10:57:01.630Z,32.90
2018-03-31T10:59:28.577Z,33.40
2018-03-31T11:01:56.728Z,33.60
2018-03-31T11:04:23.684Z,33.50
2018-03-31T11:06:50.894Z,33.50
2018-03-31T11:09:18.021Z,32.30
2018-03-31T11:11:45.764Z,33.00
2018-03-31T11:14:12.731Z,32.90
2018-03-31T11:16:39.671Z,32.80
2018-03-31T11:19:06.791Z,31.50
2018-03-31T11:21:33.780Z,31.90
2018-03-31T11:24:00.738Z,31.50
2018-03-31T11:26:27.690Z,32.50
2018-03-31T11:28:55.413Z,31.30
2018-03-31T11:31:22.483Z,31.20
2018-03-31T11:33:49.442Z,31.40
2018-03-31T11:36:16.397Z,30.80
2018-03-31T11:38:43.340Z,30.40
2018-03-31T11:41:10.298Z,29.40
2018-03-31T11:43:37.252Z,29.30
2018-03-31T11:46:04.216Z,29.60
2018-03-31T11:48:31.165Z,27.80
2018-03-31T11:50:58.119Z,28.50
2018-03-31T11:53:25.081Z,29.50
2018-03-31T11:55:52.035Z,29.20
2018-03-31T11:58:19.316Z,29.20
2018-03-31T12:00:46.262Z,29.20
2018-03-31T12:03:14.246Z,28.40
2018-03-31T12:05:41.218Z,28.30
2018-03-31T12:08:08.165Z,28.10
2018-03-31T12:10:35.120Z,27.20
2018-03-31T12:13:02.084Z,26.40
2018-03-31T12:15:29.802Z,26.60
2018-03-31T12:17:56.848Z,26.50
2018-03-31T12:20:23.790Z,26.20
2018-03-31T12:22:50.749Z,26.10
2018-03-31T12:25:17.693Z,27.20
2018-03-31T12:27:44.641Z,27.90
2018-03-31T12:30:11.615Z,28.20
2018-03-31T12:32:38.568Z,27.60
2018-03-31T12:35:05.559Z,27.10
2018-03-31T12:37:32.501Z,26.40
2018-03-31T12:39:59.462Z,26.60
2018-03-31T12:42:26.653Z,26.00
2018-03-31T12:44:53.606Z,26.10
2018-03-31T12:47:20.653Z,25.10
2018-03-31T12:49:47.715Z,25.80
2018-03-31T12:52:14.666Z,25.10
2018-03-31T12:54:41.632Z,24.20
2018-03-31T12:57:08.856Z,24.50
2018-03-31T12:59:35.817Z,25.00
2018-03-31T13:02:02.791Z,24.70
2018-03-31T13:04:29.743Z,24.70
2018-03-31T13:06:56.725Z,24.40
2018-03-31T13:09:24.214Z,24.30
2018-03-31T13:11:51.479Z,24.00
2018-03-31T13:14:18.426Z,24.00
2018-03-31T13:16:45.381Z,24.40
2018-03-31T13:19:12.424Z,25.00
2018-03-31T13:21:39.381Z,26.60
2018-03-31T13:24:06.735Z,26.50
2018-03-31T13:26:33.693Z,26.50
2018-03-31T13:29:00.642Z,25.50
2018-03-31T13:31:27.620Z,24.70
2018-03-31T13:33:54.563Z,24.00
2018-03-31T13:36:21.505Z,23.90
2018-03-31T13:38:48.511Z,23.50
2018-03-31T13:41:15.471Z,23.20
2018-03-31T13:43:42.641Z,22.90
2018-03-31T13:46:09.574Z,23.10
2018-03-31T13:48:36.514Z,23.20
2018-03-31T13:51:03.484Z,23.30
2018-03-31T13:53:30.433Z,23.80
2018-03-31T13:55:57.405Z,23.80
2018-03-31T13:58:24.355Z,24.50
2018-03-31T14:00:53.876Z,25.30
2018-03-31T14:03:21.913Z,25.60
2018-03-31T14:05:48.861Z,25.50
2018-03-31T14:08:15.852Z,26.10
2018-03-31T14:10:42.795Z,26.90
2018-03-31T14:13:09.750Z,27.80
2018-03-31T14:15:36.760Z,28.20
2018-03-31T14:18:07.134Z,28.70
2018-03-31T14:20:34.081Z,28.70
2018-03-31T14:23:02.159Z,30.60
2018-03-31T14:25:29.073Z,30.50
2018-03-31T14:27:56.032Z,31.20
2018-03-31T14:30:22.981Z,32.00
2018-03-31T14:32:49.934Z,32.50
2018-03-31T14:35:16.880Z,31.20
2018-03-31T14:37:43.829Z,29.90
2018-03-31T14:40:10.810Z,29.60
2018-03-31T14:42:38.522Z,28.10
2018-03-31T14:45:05.504Z,28.00
2018-03-31T14:47:32.446Z,28.10
2018-03-31T14:49:59.585Z,28.20
2018-03-31T14:52:26.549Z,27.70
2018-03-31T14:54:53.510Z,27.80
2018-03-31T14:57:20.466Z,27.30
2018-03-31T14:59:47.417Z,28.00
2018-03-31T15:02:14.371Z,28.60
2018-03-31T15:04:41.322Z,28.50
2018-03-31T15:07:08.275Z,28.50
2018-03-31T15:09:35.494Z,27.80
2018-03-31T15:12:02.440Z,28.30
2018-03-31T15:14:29.394Z,29.00
2018-03-31T15:16:56.349Z,29.10
2018-03-31T15:19:24.839Z,30.40
2018-03-31T15:21:51.879Z,30.40
2018-03-31T15:24:18.840Z,31.00
2018-03-31T15:26:45.971Z,31.50
2018-03-31T15:29:12.939Z,31.80
2018-03-31T15:31:39.984Z,32.70
2018-03-31T15:34:06.937Z,33.30
2018-03-31T15:36:33.885Z,32.70
2018-03-31T15:39:00.830Z,33.80
2018-03-31T15:41:27.864Z,34.60
2018-03-31T15:43:54.822Z,35.00
2018-03-31T15:46:21.962Z,35.30
2018-03-31T15:48:48.892Z,35.40
2018-03-31T15:51:15.858Z,36.20
2018-03-31T15:53:42.809Z,36.30
2018-03-31T15:56:10.585Z,36.30
2018-03-31T15:58:37.539Z,36.80
2018-03-31T16:01:04.504Z,37.10
2018-03-31T16:03:31.760Z,37.30
2018-03-31T16:05:58.710Z,37.80
2018-03-31T16:08:25.667Z,37.70
2018-03-31T16:10:52.777Z,38.50
2018-03-31T16:13:19.715Z,38.70
2018-03-31T16:15:46.671Z,39.50
2018-03-31T16:18:13.625Z,39.50
2018-03-31T16:20:40.598Z,39.60
2018-03-31T16:23:07.544Z,40.10
2018-03-31T16:25:34.498Z,39.70
2018-03-31T16:28:01.456Z,39.40
2018-03-31T16:30:28.419Z,39.80
2018-03-31T16:32:55.372Z,39.70
2018-03-31T16:35:22.310Z,38.60
2018-03-31T16:37:49.281Z,38.50
2018-03-31T16:40:16.243Z,38.80
2018-03-31T16:42:43.185Z,39.10
2018-03-31T16:45:10.149Z,39.30
2018-03-31T16:47:37.866Z,39.00
2018-03-31T16:50:04.813Z,38.90
2018-03-31T16:52:31.764Z,38.90
2018-03-31T16:54:59.485Z,39.80
2018-03-31T16:57:26.429Z,39.70
2018-03-31T16:59:53.374Z,40.30
2018-03-31T17:02:20.353Z,40.50
2018-03-31T17:04:47.298Z,40.70
2018-03-31T17:07:14.257Z,41.00
2018-03-31T17:09:41.210Z,41.00
2018-03-31T17:12:08.153Z,40.90
2018-03-31T17:14:35.109Z,41.40
2018-03-31T17:17:02.075Z,42.00
2018-03-31T17:19:29.214Z,42.40
2018-03-31T17:21:56.155Z,43.10
2018-03-31T17:24:23.112Z,43.40
2018-03-31T17:26:50.061Z,43.80
2018-03-31T17:29:17.305Z,43.90
2018-03-31T17:31:44.279Z,44.20
2018-03-31T17:34:11.234Z,44.40
2018-03-31T17:36:38.225Z,44.90
2018-03-31T17:39:05.165Z,45.30
2018-03-31T17:41:32.126Z,45.70
2018-03-31T17:43:59.849Z,46.50
2018-03-31T17:46:26.788Z,46.40
2018-03-31T17:48:53.746Z,46.60
2018-03-31T17:51:20.731Z,46.90
2018-03-31T17:53:47.685Z,46.80
2018-03-31T17:56:14.645Z,47.00
2018-03-31T17:58:42.370Z,47.00
2018-03-31T18:01:09.331Z,46.90
2018-03-31T18:03:36.290Z,47.10
2018-03-31T18:06:03.228Z,47.10
2018-03-31T18:08:30.188Z,47.20
2018-03-31T18:10:57.144Z,47.30
2018-03-31T18:13:24.854Z,47.70
2018-03-31T18:15:51.808Z,47.60
2018-03-31T18:18:18.769Z,47.90
2018-03-31T18:20:45.722Z,48.10
2018-03-31T18:23:15.110Z,48.10
2018-03-31T18:25:42.046Z,48.50
2018-03-31T18:28:09.012Z,48.90
2018-03-31T18:30:35.954Z,49.10
2018-03-31T18:33:05.586Z,49.20
2018-03-31T18:35:32.629Z,49.50
2018-03-31T18:37:59.586Z,49.50
2018-03-31T18:40:26.559Z,49.50
2018-03-31T18:42:53.494Z,49.70
2018-03-31T18:45:20.451Z,49.80
2018-03-31T18:47:47.401Z,50.10
2018-03-31T18:50:14.358Z,50.20
2018-03-31T18:52:41.334Z,50.30
2018-03-31T18:55:08.283Z,50.40
2018-03-31T18:57:35.252Z,50.40
2018-03-31T19:00:02.190Z,50.40
2018-03-31T19:02:29.159Z,50.50
2018-03-31T19:04:56.113Z,50.50
2018-03-31T19:07:23.057Z,50.60
2018-03-31T19:09:50.044Z,50.60
2018-03-31T19:12:16.986Z,50.80
2018-03-31T19:14:44.239Z,50.90
2018-03-31T19:17:14.109Z,51.00
2018-03-31T19:19:41.050Z,51.10
2018-03-31T19:22:08.040Z,51.30
2018-03-31T19:24:40.729Z,51.50
2018-03-31T19:27:07.707Z,51.50
2018-03-31T19:29:36.175Z,51.70
2018-03-31T19:32:03.133Z,51.70
2018-03-31T19:34:30.170Z,51.90
2018-03-31T19:36:57.033Z,52.10
2018-03-31T19:39:29.499Z,52.20
2018-03-31T19:41:56.446Z,52.30
2018-03-31T19:44:23.394Z,52.30
2018-03-31T19:46:50.349Z,52.40
2018-03-31T19:49:17.313Z,52.50
2018-03-31T19:51:44.272Z,52.70
2018-03-31T19:54:11.233Z,52.70
2018-03-31T19:56:38.949Z,52.60
2018-03-31T19:59:05.914Z,52.60
2018-03-31T20:01:32.879Z,52.60
2018-03-31T20:04:00.802Z,52.90
2018-03-31T20:06:27.765Z,52.90
2018-03-31T20:08:54.726Z,53.10
2018-03-31T20:11:21.669Z,53.00
2018-03-31T20:13:48.725Z,53.10
2018-03-31T20:16:15.859Z,53.30
2018-03-31T20:18:42.832Z,53.40
2018-03-31T20:21:09.789Z,53.40
2018-03-31T20:23:36.738Z,53.60
2018-03-31T20:26:03.702Z,53.70
2018-03-31T20:28:30.650Z,53.80
2018-03-31T20:30:57.614Z,53.90
2018-03-31T20:33:24.577Z,54.10
2018-03-31T20:35:52.294Z,54.50
2018-03-31T20:38:19.254Z,54.50
2018-03-31T20:40:48.854Z,54.80
2018-03-31T20:43:15.809Z,55.00
2018-03-31T20:45:42.757Z,55.30
2018-03-31T20:48:10.982Z,55.80
2018-03-31T20:50:37.929Z,55.90
2018-03-31T20:53:04.873Z,56.30
2018-03-31T20:55:31.830Z,56.60
2018-03-31T20:57:58.798Z,56.70
2018-03-31T21:00:25.754Z,56.90
2018-03-31T21:02:52.721Z,57.10
2018-03-31T21:05:19.704Z,57.00
2018-03-31T21:07:46.666Z,56.90
2018-03-31T21:10:13.617Z,57.10
2018-03-31T21:12:41.337Z,57.20
2018-03-31T21:15:08.300Z,57.20
2018-03-31T21:17:35.249Z,57.40
2018-03-31T21:20:02.218Z,57.50
2018-03-31T21:22:29.191Z,57.70
2018-03-31T21:24:56.148Z,57.80
2018-03-31T21:27:23.110Z,58.00
2018-03-31T21:29:50.082Z,58.20
2018-03-31T21:32:17.034Z,58.30
2018-03-31T21:34:44.014Z,58.30
2018-03-31T21:37:12.461Z,58.50
2018-03-31T21:39:39.421Z,58.50
2018-03-31T21:42:06.382Z,58.60
2018-03-31T21:44:33.350Z,59.20
2018-03-31T21:47:00.301Z,58.90
2018-03-31T21:49:27.249Z,59.40
2018-03-31T21:51:54.999Z,59.50
2018-03-31T21:54:21.949Z,59.60
2018-03-31T21:56:48.910Z,59.70
2018-03-31T21:59:15.858Z,59.90
2018-03-31T22:01:42.821Z,60.30
2018-03-31T22:04:09.791Z,61.00
2018-03-31T22:06:36.744Z,60.70
2018-03-31T22:09:03.707Z,61.00
2018-03-31T22:11:30.677Z,61.10
2018-03-31T22:14:03.358Z,61.40
2018-03-31T22:16:30.309Z,61.60
2018-03-31T22:18:57.254Z,61.70
2018-03-31T22:21:24.222Z,61.80
2018-03-31T22:23:51.190Z,62.00
2018-03-31T22:26:18.175Z,62.00
2018-03-31T22:28:45.157Z,62.10
2018-03-31T22:31:12.124Z,62.30
2018-03-31T22:33:39.143Z,62.70
2018-03-31T22:36:06.066Z,63.30
2018-03-31T22:38:33.022Z,64.20
2018-03-31T22:40:59.976Z,65.20
2018-03-31T22:43:26.920Z,65.10
2018-03-31T22:45:54.405Z,65.90
2018-03-31T22:48:21.358Z,65.90
2018-03-31T22:50:48.321Z,65.80
2018-03-31T22:53:15.287Z,65.90
2018-03-31T22:55:43.020Z,65.80
2018-03-31T22:58:10.000Z,65.80
2018-03-31T23:00:36.962Z,65.80
2018-03-31T23:03:06.415Z,65.80
2018-03-31T23:05:33.373Z,67.00
2018-03-31T23:08:00.305Z,66.20
2018-03-31T23:10:27.278Z,66.50
2018-03-31T23:12:54.221Z,66.70
2018-03-31T23:15:21.177Z,66.80
2018-03-31T23:17:48.113Z,67.00
2018-03-31T23:20:15.061Z,67.20
2018-03-31T23:22:42.040Z,67.30
2018-03-31T23:25:08.990Z,67.40
2018-03-31T23:27:35.957Z,68.50
2018-03-31T23:30:02.907Z,67.80
2018-03-31T23:32:29.861Z,67.90
2018-03-31T23:34:58.328Z,68.70
2018-03-31T23:37:25.269Z,68.70
2018-03-31T23:39:52.240Z,69.20
2018-03-31T23:42:19.169Z,69.80
2018-03-31T23:44:46.126Z,71.40
2018-03-31T23:47:13.086Z,71.80
2018-03-31T23:49:40.049Z,72.30
2018-03-31T23:52:07.006Z,72.50
2018-03-31T23:54:34.714Z,72.90
2018-03-31T23:57:01.669Z,72.80
2018-03-31T23:59:28.616Z,72.90
